KJFKGOOY

Guest
Details From KJFK - John F Kennedy Intl
To GOOY - Dakar Leopold Sedar Senghor Intl
Flight Number -
Tags Generated
Created
Modified
Stats Distance 3,305 nm / 6,120 km
Max Altitude 0 ft / 0 m
Waypoints 3
Social Downloads 1
Likes 0
Share VATSIM

Download

Looking for another format? Having issues loading an existing format? Contact us
Advertisement - Login to hide

Notes

Generated

Route

KJFK YF312 GOOY

ID Type Via Altitude Latitude Longitude Leg Dist Tot Dist Heading (true) Name
O KJFK APT - 0 ft / 0 m 40.62537˚ -73.77035˚ - 0 nm - -
YF312 FIX - 0 ft / 0 m 14.80752˚ -17.63440˚ 3295 nm 3295 nm 101° / 130° -
O GOOY APT - 0 ft / 0 m 14.73171˚ -17.50427˚ 8 nm 3304 nm 121° / 121° -

Altitude Profile

Advertisement - Login to hide

Weather


0- 5 10 15 20 25 30 35+ Temperature / ° C

Clouds and Precipitation
Forecast for 2017-12-16 12:00 UTC. Updated 38 minutes ago

Ground ~20,000 ft ~40,000 ft Winds

KJFK

Details ICAO KJFK (JFK)
Name John F Kennedy Intl
Region United States
Timezone America/New_York (UTC-5.0)
Stats Elevation 13 ft / 4 m (AMSL)
Location 40.639904° -73.776661°
Runways 4
Magnetic Variation 12.995° W

METAR

KJFK 160651Z 29010KT 10SM FEW080 FEW250 M04/M07 A2994 RMK AO2 SLP137 T10391072 $

Decode

TAF

TAF KJFK 160539Z 1606/1712 26012G20KT P6SM SCT250 FM161400 26017G25KT P6SM SCT040 BKN200 FM161600 27018G26KT P6SM VCSH BKN040 BKN120 FM162100 27014KT P6SM BKN040 BKN120 FM170000 31011KT P6SM BKN050 FM170500 34008KT P6SM SCT050

Decode

Departure Runways

ID Width Length Bearing (true) Bearing (mag) Surface Threshold Offset Overrun Length
04L 151 ft / 46 m 11,358 ft / 3,462 m 30.66° 43.66° Asphalt 0 ft / 0 m 200 ft / 61 m
04R 200 ft / 61 m 8,405 ft / 2,562 m 30.67° 43.67° Asphalt 0 ft / 0 m 0 ft / 0 m
13L 151 ft / 46 m 9,986 ft / 3,044 m 120.85° 133.85° Asphalt 988 ft / 301 m 400 ft / 122 m
13R 151 ft / 46 m 14,553 ft / 4,436 m 120.83° 133.83° Asphalt 2,605 ft / 794 m 400 ft / 122 m
22L 200 ft / 61 m 8,405 ft / 2,562 m 210.68° 223.68° Asphalt 0 ft / 0 m 545 ft / 166 m
22R 151 ft / 46 m 11,358 ft / 3,462 m 210.67° 223.67° Asphalt 2,697 ft / 822 m 604 ft / 184 m
31L 151 ft / 46 m 14,553 ft / 4,436 m 300.86° 313.86° Asphalt 3,317 ft / 1,011 m 600 ft / 183 m
31R 151 ft / 46 m 9,986 ft / 3,044 m 300.87° 313.87° Asphalt 1,030 ft / 314 m 246 ft / 75 m

GOOY

Details ICAO GOOY (DKR)
Name Dakar Leopold Sedar Senghor Intl
Region Senegal
Timezone Africa/Dakar (UTC+0.0)
Stats Elevation 85 ft / 26 m (AMSL)
Location 14.739711° -17.490226°
Runways 2
Magnetic Variation 7.347° W

METAR

GOOY 160700Z 04010KT 8000 NSC 20/11 Q1014

Decode

TAF

TAF GOOY 160530Z 1606/1712 05012KT 8000 NSC= TAF GBYD 160530Z 1606/1712 03008KT CAVOK

Decode

Destination Runways

ID Width Length Bearing (true) Bearing (mag) Surface Threshold Offset Overrun Length
03 98 ft / 30 m 4,921 ft / 1,500 m 22.31° 29.66° Asphalt 0 ft / 0 m 98 ft / 30 m
18 148 ft / 45 m 11,511 ft / 3,509 m 172.57° 179.92° Asphalt 525 ft / 160 m 197 ft / 60 m
21 98 ft / 30 m 4,921 ft / 1,500 m 202.31° 209.66° Asphalt 0 ft / 0 m 1,590 ft / 485 m
36 148 ft / 45 m 11,511 ft / 3,509 m 352.57° 359.92° Asphalt 0 ft / 0 m 197 ft / 60 m

Approach Navaids

Runway Type Ident Frequency Range Bearing (true) Bearing (mag) Slope Elevation
36 Localiser YF 110.30 MHz 18 nm / 33 km 352.33° 359.67° - 65 ft / 20 m (AMSL)
36 Glidescope YF 110.30 MHz 10 nm / 19 km 352.57° 359.92° 3.01° 73 ft / 22 m (AMSL)
36 DME YF 110.30 MHz 18 nm / 33 km - - - 73 ft / 22 m (AMSL)

Popular Alternatives